sensor_id;sensor_type;location;lat;lon;timestamp;P1;durP1;ratioP1;P2;durP2;ratioP2
73844;SDS011;62186;55.046;73.426;2022-07-12T07:59:51;3.42;;;3.13;;
73844;SDS011;62186;55.046;73.426;2022-07-12T08:02:18;3.75;;;3.38;;
73844;SDS011;62186;55.046;73.426;2022-07-12T08:04:54;4.75;;;2.83;;
73844;SDS011;62186;55.046;73.426;2022-07-12T08:07:20;3.70;;;2.53;;
73844;SDS011;62186;55.046;73.426;2022-07-12T08:09:52;6.47;;;2.47;;
73844;SDS011;62186;55.046;73.426;2022-07-12T08:12:19;2.97;;;2.78;;
73844;SDS011;62186;55.046;73.426;2022-07-12T08:14:45;3.00;;;2.70;;
73844;SDS011;62186;55.046;73.426;2022-07-12T08:17:16;4.40;;;2.30;;
73844;SDS011;62186;55.046;73.426;2022-07-12T08:19:42;3.10;;;2.63;;
73844;SDS011;62186;55.046;73.426;2022-07-12T08:22:13;7.00;;;2.70;;
73844;SDS011;62186;55.046;73.426;2022-07-12T08:24:47;15.23;;;2.75;;
73844;SDS011;62186;55.046;73.426;2022-07-12T08:27:13;10.23;;;2.63;;
73844;SDS011;62186;55.046;73.426;2022-07-12T08:29:40;8.90;;;3.03;;
73844;SDS011;62186;55.046;73.426;2022-07-12T08:32:06;16.73;;;3.35;;
73844;SDS011;62186;55.046;73.426;2022-07-12T08:34:39;6.83;;;3.20;;
73844;SDS011;62186;55.046;73.426;2022-07-12T08:37:15;16.88;;;2.92;;
73844;SDS011;62186;55.046;73.426;2022-07-12T08:39:41;10.38;;;2.95;;
73844;SDS011;62186;55.046;73.426;2022-07-12T08:42:16;12.15;;;3.10;;
73844;SDS011;62186;55.046;73.426;2022-07-12T08:44:44;5.25;;;2.40;;
73844;SDS011;62186;55.046;73.426;2022-07-12T08:47:20;5.95;;;2.60;;
73844;SDS011;62186;55.046;73.426;2022-07-12T08:52:40;22.85;;;2.67;;
73844;SDS011;62186;55.046;73.426;2022-07-12T08:58:14;6.32;;;3.13;;
73844;SDS011;62186;55.046;73.426;2022-07-12T09:00:49;17.45;;;3.50;;
73844;SDS011;62186;55.046;73.426;2022-07-12T09:03:16;6.82;;;3.35;;
73844;SDS011;62186;55.046;73.426;2022-07-12T09:05:47;14.98;;;3.08;;
73844;SDS011;62186;55.046;73.426;2022-07-12T09:08:17;8.98;;;2.85;;
73844;SDS011;62186;55.046;73.426;2022-07-12T09:13:53;15.10;;;3.63;;
73844;SDS011;62186;55.046;73.426;2022-07-12T09:19:14;5.78;;;3.42;;
73844;SDS011;62186;55.046;73.426;2022-07-12T09:21:53;7.88;;;3.00;;
73844;SDS011;62186;55.046;73.426;2022-07-12T09:24:23;6.15;;;3.30;;
73844;SDS011;62186;55.046;73.426;2022-07-12T09:27:01;3.65;;;2.63;;
73844;SDS011;62186;55.046;73.426;2022-07-12T09:29:29;8.80;;;3.67;;
73844;SDS011;62186;55.046;73.426;2022-07-12T09:31:56;8.70;;;3.05;;
73844;SDS011;62186;55.046;73.426;2022-07-12T09:34:41;16.70;;;3.58;;
73844;SDS011;62186;55.046;73.426;2022-07-12T09:37:26;11.25;;;3.22;;
73844;SDS011;62186;55.046;73.426;2022-07-12T09:39:53;49.75;;;3.67;;
73844;SDS011;62186;55.046;73.426;2022-07-12T09:42:20;23.17;;;3.22;;
73844;SDS011;62186;55.046;73.426;2022-07-12T09:44:47;15.15;;;4.20;;
73844;SDS011;62186;55.046;73.426;2022-07-12T09:47:24;14.15;;;2.90;;
73844;SDS011;62186;55.046;73.426;2022-07-12T09:49:55;27.17;;;3.83;;
73844;SDS011;62186;55.046;73.426;2022-07-12T09:52:22;23.42;;;3.03;;
73844;SDS011;62186;55.046;73.426;2022-07-12T09:54:54;20.95;;;3.28;;
73844;SDS011;62186;55.046;73.426;2022-07-12T09:57:25;11.13;;;3.05;;
73844;SDS011;62186;55.046;73.426;2022-07-12T09:59:53;13.27;;;3.00;;
73844;SDS011;62186;55.046;73.426;2022-07-12T10:02:26;16.10;;;2.70;;
73844;SDS011;62186;55.046;73.426;2022-07-12T10:04:54;25.23;;;3.03;;
73844;SDS011;62186;55.046;73.426;2022-07-12T10:07:31;7.22;;;3.75;;
73844;SDS011;62186;55.046;73.426;2022-07-12T10:10:06;16.30;;;2.60;;
73844;SDS011;62186;55.046;73.426;2022-07-12T10:12:46;7.78;;;2.90;;
73844;SDS011;62186;55.046;73.426;2022-07-12T10:15:16;4.57;;;3.20;;
73844;SDS011;62186;55.046;73.426;2022-07-12T10:17:51;8.60;;;3.67;;
73844;SDS011;62186;55.046;73.426;2022-07-12T10:20:24;7.75;;;2.70;;
73844;SDS011;62186;55.046;73.426;2022-07-12T10:22:55;6.32;;;2.75;;
73844;SDS011;62186;55.046;73.426;2022-07-12T10:25:42;25.88;;;2.95;;
73844;SDS011;62186;55.046;73.426;2022-07-12T10:28:08;7.47;;;2.85;;
73844;SDS011;62186;55.046;73.426;2022-07-12T10:30:43;7.95;;;2.25;;
73844;SDS011;62186;55.046;73.426;2022-07-12T10:33:14;9.05;;;2.78;;
73844;SDS011;62186;55.046;73.426;2022-07-12T10:38:32;7.65;;;2.50;;
73844;SDS011;62186;55.046;73.426;2022-07-12T10:41:18;3.15;;;2.10;;
73844;SDS011;62186;55.046;73.426;2022-07-12T10:43:46;3.63;;;2.45;;
73844;SDS011;62186;55.046;73.426;2022-07-12T10:46:32;2.13;;;1.92;;
73844;SDS011;62186;55.046;73.426;2022-07-12T10:49:23;2.38;;;2.00;;
73844;SDS011;62186;55.046;73.426;2022-07-12T10:57:06;4.88;;;2.05;;
73844;SDS011;62186;55.046;73.426;2022-07-12T10:59:41;2.85;;;1.85;;
73844;SDS011;62186;55.046;73.426;2022-07-12T11:02:09;5.82;;;2.20;;
73844;SDS011;62186;55.046;73.426;2022-07-12T11:04:44;6.75;;;2.10;;
73844;SDS011;62186;55.046;73.426;2022-07-12T11:07:16;15.45;;;2.92;;
73844;SDS011;62186;55.046;73.426;2022-07-12T11:09:43;4.85;;;2.05;;
73844;SDS011;62186;55.046;73.426;2022-07-12T11:12:09;3.58;;;2.42;;
73844;SDS011;62186;55.046;73.426;2022-07-12T11:14:36;9.80;;;2.47;;
73844;SDS011;62186;55.046;73.426;2022-07-12T11:17:03;4.72;;;2.55;;
73844;SDS011;62186;55.046;73.426;2022-07-12T11:19:30;5.50;;;2.55;;
73844;SDS011;62186;55.046;73.426;2022-07-12T11:21:57;4.45;;;1.60;;
73844;SDS011;62186;55.046;73.426;2022-07-12T11:24:25;5.63;;;2.15;;
73844;SDS011;62186;55.046;73.426;2022-07-12T11:26:53;15.30;;;2.30;;
73844;SDS011;62186;55.046;73.426;2022-07-12T11:29:20;3.72;;;2.10;;
73844;SDS011;62186;55.046;73.426;2022-07-12T11:31:47;8.90;;;2.05;;
73844;SDS011;62186;55.046;73.426;2022-07-12T11:34:24;3.00;;;1.83;;
73844;SDS011;62186;55.046;73.426;2022-07-12T11:36:55;12.50;;;2.08;;
73844;SDS011;62186;55.046;73.426;2022-07-12T11:39:33;6.35;;;2.17;;
73844;SDS011;62186;55.046;73.426;2022-07-12T11:42:05;4.00;;;1.85;;
73844;SDS011;62186;55.046;73.426;2022-07-12T11:47:19;15.13;;;2.10;;
73844;SDS011;62186;55.046;73.426;2022-07-12T11:52:23;2.17;;;1.40;;
73844;SDS011;62186;55.046;73.426;2022-07-12T11:54:50;2.70;;;2.13;;
73844;SDS011;62186;55.046;73.426;2022-07-12T11:57:29;17.90;;;1.90;;
73844;SDS011;62186;55.046;73.426;2022-07-12T12:00:12;3.80;;;1.80;;
73844;SDS011;62186;55.046;73.426;2022-07-12T12:02:50;8.10;;;2.00;;
73844;SDS011;62186;55.046;73.426;2022-07-12T12:05:17;4.20;;;2.25;;
73844;SDS011;62186;55.046;73.426;2022-07-12T12:07:45;2.90;;;1.58;;
73844;SDS011;62186;55.046;73.426;2022-07-12T12:10:12;6.55;;;1.90;;
73844;SDS011;62186;55.046;73.426;2022-07-12T12:12:50;3.05;;;1.90;;
